createdAt,value
2017-08-25T00:01:07.394Z,53.30
2017-08-25T00:03:34.873Z,53.40
2017-08-25T00:06:02.359Z,53.50
2017-08-25T00:08:29.837Z,53.50
2017-08-25T00:10:57.281Z,53.60
2017-08-25T00:13:24.735Z,53.70
2017-08-25T00:15:52.237Z,53.70
2017-08-25T00:18:19.693Z,53.80
2017-08-25T00:20:47.901Z,53.90
2017-08-25T00:23:15.369Z,53.80
2017-08-25T00:25:42.858Z,53.90
2017-08-25T00:28:10.310Z,54.00
2017-08-25T00:30:37.797Z,54.00
2017-08-25T00:33:05.293Z,54.00
2017-08-25T00:35:32.786Z,54.00
2017-08-25T00:38:00.266Z,54.00
2017-08-25T00:40:27.823Z,54.00
2017-08-25T00:42:55.378Z,54.10
2017-08-25T00:45:22.829Z,54.10
2017-08-25T00:47:50.314Z,54.20
2017-08-25T00:50:18.529Z,54.20
2017-08-25T00:52:45.981Z,54.30
2017-08-25T00:55:13.460Z,54.30
2017-08-25T00:57:40.910Z,54.30
2017-08-25T01:00:08.386Z,54.30
2017-08-25T01:02:35.898Z,54.30
2017-08-25T01:05:03.344Z,54.40
2017-08-25T01:07:30.801Z,54.40
2017-08-25T01:09:59.075Z,54.60
2017-08-25T01:12:26.550Z,54.60
2017-08-25T01:14:53.998Z,54.60
2017-08-25T01:17:21.477Z,54.60
2017-08-25T01:19:48.922Z,54.70
2017-08-25T01:22:16.433Z,54.70
2017-08-25T01:24:43.885Z,54.80
2017-08-25T01:27:11.329Z,54.90
2017-08-25T01:29:38.824Z,55.00
2017-08-25T01:32:06.283Z,55.00
2017-08-25T01:34:33.734Z,55.00
2017-08-25T01:37:01.205Z,55.20
2017-08-25T01:39:28.673Z,55.20
2017-08-25T01:41:56.145Z,55.80
2017-08-25T01:44:23.593Z,55.20
2017-08-25T01:46:51.061Z,55.20
2017-08-25T01:49:18.510Z,55.30
2017-08-25T01:51:45.990Z,55.40
2017-08-25T01:54:13.457Z,55.40
2017-08-25T01:56:40.935Z,55.40
2017-08-25T01:59:08.422Z,55.50
2017-08-25T02:01:35.874Z,55.50
2017-08-25T02:04:03.321Z,56.00
2017-08-25T02:06:30.805Z,55.70
2017-08-25T02:08:58.262Z,55.80
2017-08-25T02:11:25.714Z,55.80
2017-08-25T02:13:53.195Z,55.70
2017-08-25T02:16:20.641Z,56.20
2017-08-25T02:18:48.217Z,55.80
2017-08-25T02:21:15.701Z,55.80
2017-08-25T02:23:43.144Z,55.70
2017-08-25T02:26:10.601Z,55.70
2017-08-25T02:28:38.077Z,55.70
2017-08-25T02:31:05.524Z,55.60
2017-08-25T02:33:32.998Z,55.60
2017-08-25T02:36:00.442Z,55.50
2017-08-25T02:38:27.917Z,55.40
2017-08-25T02:40:55.376Z,55.40
2017-08-25T02:43:22.890Z,55.40
2017-08-25T02:45:50.334Z,55.40
2017-08-25T02:48:17.793Z,55.50
2017-08-25T02:50:45.264Z,55.60
2017-08-25T02:53:12.755Z,55.60
2017-08-25T02:55:40.205Z,55.60
2017-08-25T02:58:07.653Z,55.60
2017-08-25T03:00:35.130Z,55.70
2017-08-25T03:03:02.585Z,55.70
2017-08-25T03:05:30.042Z,55.70
2017-08-25T03:07:57.513Z,55.70
2017-08-25T03:10:25.026Z,55.90
2017-08-25T03:12:52.476Z,55.90
2017-08-25T03:15:19.925Z,56.50
2017-08-25T03:17:47.410Z,56.00
2017-08-25T03:20:14.849Z,56.00
2017-08-25T03:22:42.297Z,56.10
2017-08-25T03:25:09.766Z,56.10
2017-08-25T03:27:37.220Z,56.20
2017-08-25T03:30:04.695Z,56.20
2017-08-25T03:32:32.148Z,56.10
2017-08-25T03:35:00.366Z,56.30
2017-08-25T03:37:27.845Z,56.30
2017-08-25T03:39:55.298Z,56.40
2017-08-25T03:42:22.757Z,56.50
2017-08-25T03:44:50.229Z,56.50
2017-08-25T03:47:17.683Z,56.70
2017-08-25T03:49:45.168Z,56.80
2017-08-25T03:52:13.427Z,56.90
2017-08-25T03:54:40.869Z,56.90
2017-08-25T03:57:08.325Z,57.00
2017-08-25T03:59:35.801Z,57.00
2017-08-25T04:02:04.946Z,57.70
2017-08-25T04:04:32.421Z,57.10
2017-08-25T04:06:59.874Z,57.10
2017-08-25T04:09:27.341Z,57.20
2017-08-25T04:11:54.813Z,57.20
2017-08-25T04:14:22.298Z,57.20
2017-08-25T04:16:50.513Z,57.30
2017-08-25T04:19:18.005Z,57.20
2017-08-25T04:21:45.453Z,57.10
2017-08-25T04:24:12.937Z,57.20
2017-08-25T04:26:40.405Z,57.20
2017-08-25T04:29:07.886Z,57.20
2017-08-25T04:31:35.342Z,57.20
2017-08-25T04:34:02.825Z,57.30
2017-08-25T04:36:30.269Z,57.30
2017-08-25T04:38:57.725Z,57.30
2017-08-25T04:41:25.206Z,57.40
2017-08-25T04:43:52.665Z,57.40
2017-08-25T04:46:20.122Z,57.40
2017-08-25T04:48:47.641Z,57.30
2017-08-25T04:51:15.090Z,57.30
2017-08-25T04:53:42.582Z,57.30
2017-08-25T04:56:10.033Z,57.40
2017-08-25T04:58:37.493Z,57.40
2017-08-25T05:01:04.978Z,57.40
2017-08-25T05:03:32.433Z,57.30
2017-08-25T05:05:59.907Z,57.30
2017-08-25T05:08:27.358Z,57.30
2017-08-25T05:10:54.829Z,57.40
2017-08-25T05:13:22.313Z,57.40
2017-08-25T05:15:49.761Z,57.30
2017-08-25T05:18:17.232Z,57.30
2017-08-25T05:20:44.831Z,57.30
2017-08-25T05:23:12.321Z,57.30
2017-08-25T05:25:39.804Z,57.30
2017-08-25T05:28:07.286Z,57.30
2017-08-25T05:30:35.513Z,57.20
2017-08-25T05:33:02.994Z,57.30
2017-08-25T05:35:30.445Z,57.20
2017-08-25T05:37:57.934Z,57.30
2017-08-25T05:40:25.481Z,57.20
2017-08-25T05:42:52.924Z,57.10
2017-08-25T05:45:20.393Z,57.10
2017-08-25T05:47:47.849Z,57.20
2017-08-25T05:50:16.163Z,57.70
2017-08-25T05:52:43.612Z,57.00
2017-08-25T05:55:11.062Z,57.00
2017-08-25T05:57:38.533Z,57.00
2017-08-25T06:00:05.985Z,56.90
2017-08-25T06:02:33.465Z,56.80
2017-08-25T06:05:00.933Z,56.70
2017-08-25T06:07:28.535Z,56.70
2017-08-25T06:09:56.064Z,56.70
2017-08-25T06:12:23.945Z,56.70
2017-08-25T06:14:51.454Z,56.70
2017-08-25T06:17:18.913Z,56.70
2017-08-25T06:19:46.382Z,56.60
2017-08-25T06:22:13.833Z,56.50
2017-08-25T06:24:41.313Z,56.40
2017-08-25T06:27:08.766Z,56.40
2017-08-25T06:29:36.249Z,56.40
2017-08-25T06:32:03.705Z,56.40
2017-08-25T06:34:31.153Z,56.40
2017-08-25T06:36:58.637Z,56.40
2017-08-25T06:39:26.091Z,56.40
2017-08-25T06:41:53.577Z,56.50
2017-08-25T06:44:21.055Z,56.30
2017-08-25T06:46:48.505Z,56.30
2017-08-25T06:49:15.980Z,56.10
2017-08-25T06:51:43.449Z,56.60
2017-08-25T06:54:10.921Z,55.90
2017-08-25T06:56:38.409Z,55.60
2017-08-25T06:59:05.866Z,55.40
2017-08-25T07:01:33.309Z,55.00
2017-08-25T07:04:00.781Z,54.90
2017-08-25T07:06:28.274Z,54.60
2017-08-25T07:08:55.785Z,54.50
2017-08-25T07:11:23.247Z,54.40
2017-08-25T07:13:50.725Z,54.50
2017-08-25T07:16:18.179Z,54.40
2017-08-25T07:18:45.671Z,54.40
2017-08-25T07:21:13.122Z,54.30
2017-08-25T07:23:40.574Z,54.20
2017-08-25T07:26:08.057Z,53.90
2017-08-25T07:28:35.509Z,53.90
2017-08-25T07:31:02.959Z,54.10
2017-08-25T07:33:30.454Z,54.00
2017-08-25T07:35:57.902Z,53.90
2017-08-25T07:38:25.350Z,53.70
2017-08-25T07:40:52.817Z,53.40
2017-08-25T07:43:20.268Z,53.10
2017-08-25T07:45:47.742Z,53.00
2017-08-25T07:48:15.191Z,53.00
2017-08-25T07:50:42.678Z,52.50
2017-08-25T07:53:10.121Z,52.50
2017-08-25T07:55:37.570Z,52.30
2017-08-25T07:58:05.046Z,52.20
2017-08-25T08:00:32.530Z,52.20
2017-08-25T08:03:00.002Z,52.70
2017-08-25T08:05:27.491Z,52.10
2017-08-25T08:07:54.941Z,52.30
2017-08-25T08:10:22.395Z,52.00
2017-08-25T08:12:49.871Z,51.80
2017-08-25T08:15:17.313Z,51.80
2017-08-25T08:17:44.756Z,51.70
2017-08-25T08:20:12.229Z,51.40
2017-08-25T08:22:39.677Z,51.20
2017-08-25T08:25:07.144Z,51.10
2017-08-25T08:27:34.627Z,51.10
2017-08-25T08:30:02.117Z,50.80
2017-08-25T08:32:29.566Z,50.70
2017-08-25T08:34:57.037Z,50.50
2017-08-25T08:37:24.494Z,50.50
2017-08-25T08:39:51.934Z,50.50
2017-08-25T08:42:19.405Z,50.50
2017-08-25T08:44:46.890Z,50.60
2017-08-25T08:47:14.337Z,50.60
2017-08-25T08:49:41.782Z,50.50
2017-08-25T08:52:09.277Z,50.50
2017-08-25T08:54:36.721Z,50.40
2017-08-25T08:57:04.166Z,50.60
2017-08-25T08:59:31.644Z,50.50
2017-08-25T09:01:59.094Z,50.30
2017-08-25T09:04:26.546Z,50.20
2017-08-25T09:06:54.020Z,50.10
2017-08-25T09:09:21.469Z,50.00
2017-08-25T09:11:48.913Z,50.10
2017-08-25T09:14:16.410Z,50.20
2017-08-25T09:16:43.862Z,50.00
2017-08-25T09:19:11.309Z,49.90
2017-08-25T09:21:38.781Z,49.90
2017-08-25T09:24:06.229Z,49.50
2017-08-25T09:26:33.694Z,49.20
2017-08-25T09:29:01.141Z,48.90
2017-08-25T09:31:28.700Z,48.80
2017-08-25T09:33:56.353Z,48.60
2017-08-25T09:36:23.826Z,48.50
2017-08-25T09:38:51.302Z,48.30
2017-08-25T09:41:18.754Z,48.10
2017-08-25T09:43:46.229Z,48.00
2017-08-25T09:46:13.681Z,47.90
2017-08-25T09:48:41.157Z,47.80
2017-08-25T09:51:08.613Z,47.50
2017-08-25T09:53:36.065Z,47.20
2017-08-25T09:56:03.555Z,47.50
2017-08-25T09:58:31.001Z,47.30
2017-08-25T10:00:58.449Z,47.40
2017-08-25T10:03:25.922Z,47.40
2017-08-25T10:05:53.407Z,47.50
2017-08-25T10:08:20.859Z,47.40
2017-08-25T10:10:48.329Z,47.20
2017-08-25T10:13:15.782Z,47.00
2017-08-25T10:15:43.258Z,46.60
2017-08-25T10:18:10.740Z,46.50
2017-08-25T10:20:38.185Z,46.10
2017-08-25T10:23:05.647Z,45.90
2017-08-25T10:25:33.208Z,45.90
2017-08-25T10:28:00.677Z,45.90
2017-08-25T10:30:28.124Z,45.80
2017-08-25T10:32:55.603Z,45.70
2017-08-25T10:35:34.913Z,45.70
2017-08-25T10:38:14.001Z,45.80
2017-08-25T10:40:53.270Z,45.10
2017-08-25T10:43:32.493Z,45.10
2017-08-25T10:46:00.054Z,45.00
2017-08-25T10:48:27.504Z,44.90
2017-08-25T10:50:54.986Z,44.90
2017-08-25T10:53:22.442Z,44.60
2017-08-25T10:55:49.930Z,44.20
2017-08-25T10:58:17.377Z,44.30
2017-08-25T11:00:44.832Z,44.00
2017-08-25T11:03:13.078Z,44.20
2017-08-25T11:05:40.558Z,44.10
2017-08-25T11:08:08.010Z,44.00
2017-08-25T11:10:35.453Z,43.90
2017-08-25T11:13:02.925Z,43.70
2017-08-25T11:15:30.369Z,43.40
2017-08-25T11:17:57.842Z,43.20
2017-08-25T11:20:25.289Z,43.10
2017-08-25T11:22:52.764Z,43.00
2017-08-25T11:25:20.209Z,42.80
2017-08-25T11:27:47.693Z,42.90
2017-08-25T11:30:15.150Z,42.60
2017-08-25T11:32:42.607Z,42.50
2017-08-25T11:35:10.092Z,42.40
2017-08-25T11:37:37.545Z,42.30
2017-08-25T11:40:04.994Z,42.00
2017-08-25T11:42:32.485Z,42.00
2017-08-25T11:44:59.934Z,42.10
2017-08-25T11:47:27.387Z,41.90
2017-08-25T11:49:54.992Z,41.70
2017-08-25T11:52:22.477Z,41.80
2017-08-25T11:54:49.922Z,41.60
2017-08-25T11:57:17.373Z,41.60
2017-08-25T11:59:44.845Z,41.00
2017-08-25T12:02:12.289Z,41.00
2017-08-25T12:04:39.758Z,40.60
2017-08-25T12:07:08.130Z,40.60
2017-08-25T12:09:35.609Z,40.50
2017-08-25T12:12:03.062Z,40.80
2017-08-25T12:14:30.518Z,40.70
2017-08-25T12:16:58.001Z,40.20
2017-08-25T12:19:25.453Z,39.40
2017-08-25T12:21:53.669Z,38.90
2017-08-25T12:24:21.137Z,38.80
2017-08-25T12:26:48.614Z,38.70
2017-08-25T12:29:16.097Z,38.50
2017-08-25T12:31:43.576Z,38.70
2017-08-25T12:34:11.030Z,38.60
2017-08-25T12:36:38.479Z,38.90
2017-08-25T12:39:05.964Z,38.20
2017-08-25T12:41:33.418Z,38.40
2017-08-25T12:44:00.866Z,38.60
2017-08-25T12:46:29.101Z,37.80
2017-08-25T12:48:56.585Z,37.80
2017-08-25T12:51:24.806Z,37.30
2017-08-25T12:53:52.257Z,37.30
2017-08-25T12:56:19.741Z,37.00
2017-08-25T12:58:47.234Z,36.60
2017-08-25T13:01:15.450Z,36.60
2017-08-25T13:03:43.701Z,36.50
2017-08-25T13:06:11.155Z,36.50
2017-08-25T13:08:38.605Z,36.00
2017-08-25T13:11:06.089Z,35.50
2017-08-25T13:13:35.006Z,35.00
2017-08-25T13:16:02.470Z,34.70
2017-08-25T13:18:29.913Z,34.60
2017-08-25T13:20:57.389Z,34.50
2017-08-25T13:23:24.875Z,34.00
2017-08-25T13:25:52.389Z,33.80
2017-08-25T13:28:19.825Z,33.40
2017-08-25T13:30:47.264Z,33.30
2017-08-25T13:33:15.521Z,33.30
2017-08-25T13:35:42.969Z,33.30
2017-08-25T13:38:10.417Z,33.40
2017-08-25T13:40:37.903Z,33.20
2017-08-25T13:43:05.349Z,32.40
2017-08-25T13:45:32.801Z,32.20
2017-08-25T13:48:00.294Z,32.70
2017-08-25T13:50:27.740Z,33.10
2017-08-25T13:52:55.486Z,33.40
2017-08-25T13:55:22.962Z,32.70
2017-08-25T13:57:50.433Z,32.40
2017-08-25T14:00:17.915Z,31.70
2017-08-25T14:02:45.362Z,30.80
2017-08-25T14:05:12.805Z,30.00
2017-08-25T14:07:40.301Z,29.00
2017-08-25T14:10:07.752Z,28.10
2017-08-25T14:12:35.206Z,27.90
2017-08-25T14:15:02.675Z,28.00
2017-08-25T14:17:30.125Z,28.30
2017-08-25T14:19:57.634Z,28.70
2017-08-25T14:22:25.109Z,29.10
2017-08-25T14:24:53.330Z,29.70
2017-08-25T14:27:20.850Z,30.10
2017-08-25T14:29:48.340Z,29.60
2017-08-25T14:32:15.853Z,30.00
2017-08-25T14:34:43.849Z,30.30
2017-08-25T14:37:11.338Z,30.70
2017-08-25T14:39:39.290Z,31.00
2017-08-25T14:42:06.822Z,30.90
2017-08-25T14:44:34.302Z,30.90
2017-08-25T14:47:01.744Z,30.80
2017-08-25T14:49:29.222Z,31.10
2017-08-25T14:51:56.670Z,31.40
2017-08-25T14:54:24.150Z,30.80
2017-08-25T14:56:51.621Z,31.00
2017-08-25T14:59:19.077Z,31.00
2017-08-25T15:01:46.549Z,30.90
2017-08-25T15:04:14.000Z,30.70
2017-08-25T15:06:41.465Z,30.40
2017-08-25T15:09:08.918Z,30.30
2017-08-25T15:11:36.407Z,29.80
2017-08-25T15:14:03.854Z,29.40
2017-08-25T15:16:31.304Z,29.40
2017-08-25T15:18:58.839Z,29.20
2017-08-25T15:21:26.335Z,29.20
2017-08-25T15:23:53.806Z,29.20
2017-08-25T15:26:21.277Z,29.50
2017-08-25T15:28:48.737Z,29.40
2017-08-25T15:31:16.216Z,30.20
2017-08-25T15:33:43.666Z,29.60
2017-08-25T15:36:11.104Z,29.40
2017-08-25T15:38:38.665Z,29.20
2017-08-25T15:41:06.128Z,28.40
2017-08-25T15:43:33.572Z,28.20
2017-08-25T15:46:01.060Z,28.40
2017-08-25T15:48:28.505Z,28.90
2017-08-25T15:50:55.958Z,29.10
2017-08-25T15:53:24.201Z,29.00
2017-08-25T15:55:51.695Z,28.90
2017-08-25T15:58:19.172Z,29.10
2017-08-25T16:00:46.636Z,29.10
2017-08-25T16:03:14.142Z,29.20
2017-08-25T16:05:41.601Z,29.30
2017-08-25T16:08:09.077Z,29.40
2017-08-25T16:10:36.586Z,29.30
2017-08-25T16:13:04.065Z,29.20
2017-08-25T16:15:31.649Z,29.20
2017-08-25T16:17:59.116Z,29.50
2017-08-25T16:20:26.602Z,30.00
2017-08-25T16:22:54.111Z,30.20
2017-08-25T16:25:21.586Z,30.70
2017-08-25T16:27:49.089Z,30.80
2017-08-25T16:30:16.538Z,31.00
2017-08-25T16:32:43.999Z,31.30
2017-08-25T16:35:11.464Z,31.70
2017-08-25T16:37:38.941Z,31.80
2017-08-25T16:40:06.389Z,32.10
2017-08-25T16:42:33.869Z,32.50
2017-08-25T16:45:01.321Z,32.70
2017-08-25T16:47:28.804Z,33.30
2017-08-25T16:49:56.273Z,33.70
2017-08-25T16:52:23.724Z,34.30
2017-08-25T16:54:51.206Z,34.70
2017-08-25T16:57:18.666Z,34.90
2017-08-25T16:59:46.118Z,35.30
2017-08-25T17:02:13.600Z,35.60
2017-08-25T17:07:14.999Z,35.90
2017-08-25T17:09:42.581Z,36.30
2017-08-25T17:12:10.245Z,36.40
2017-08-25T17:14:37.737Z,36.60
2017-08-25T17:17:05.186Z,37.30
2017-08-25T17:19:32.647Z,36.90
2017-08-25T17:22:00.133Z,37.00
2017-08-25T17:24:27.593Z,37.10
2017-08-25T17:26:55.074Z,37.40
2017-08-25T17:29:22.530Z,37.60
2017-08-25T17:31:50.006Z,37.70
2017-08-25T17:34:17.453Z,37.80
2017-08-25T17:36:44.902Z,37.90
2017-08-25T17:39:12.406Z,38.00
2017-08-25T17:41:40.729Z,38.10
2017-08-25T17:44:08.202Z,38.40
2017-08-25T17:46:35.645Z,38.70
2017-08-25T17:49:03.121Z,38.70
2017-08-25T17:51:30.593Z,38.80
2017-08-25T17:53:58.088Z,39.00
2017-08-25T17:56:25.596Z,39.10
2017-08-25T17:58:53.053Z,39.40
2017-08-25T18:01:20.506Z,39.50
2017-08-25T18:03:47.985Z,39.60
2017-08-25T18:06:16.198Z,40.00
2017-08-25T18:08:43.717Z,40.00
2017-08-25T18:11:11.218Z,40.10
2017-08-25T18:13:38.947Z,40.40
2017-08-25T18:16:06.528Z,40.60
2017-08-25T18:18:34.093Z,40.80
2017-08-25T18:21:01.601Z,41.00
2017-08-25T18:23:29.130Z,41.10
2017-08-25T18:25:56.637Z,41.30
2017-08-25T18:28:24.081Z,41.50
2017-08-25T18:30:51.550Z,41.50
2017-08-25T18:33:19.001Z,41.70
2017-08-25T18:35:46.464Z,41.90
2017-08-25T18:38:13.918Z,42.10
2017-08-25T18:40:41.429Z,42.40
2017-08-25T18:43:08.873Z,42.60
2017-08-25T18:45:36.329Z,42.80
2017-08-25T18:48:03.789Z,43.00
2017-08-25T18:50:31.405Z,43.20
2017-08-25T18:52:58.903Z,43.30
2017-08-25T18:55:27.100Z,43.50
2017-08-25T18:57:54.544Z,43.50
2017-08-25T19:00:22.057Z,43.60
2017-08-25T19:02:49.514Z,43.60
2017-08-25T19:05:16.982Z,43.80
2017-08-25T19:07:44.437Z,43.90
2017-08-25T19:10:11.930Z,44.00
2017-08-25T19:12:39.372Z,44.10
2017-08-25T19:15:06.862Z,44.10
2017-08-25T19:17:34.334Z,44.10
2017-08-25T19:20:01.806Z,44.20
2017-08-25T19:22:29.286Z,44.30
2017-08-25T19:24:56.734Z,44.40
2017-08-25T19:27:24.210Z,44.40
2017-08-25T19:29:51.691Z,44.60
2017-08-25T19:32:19.162Z,44.60
2017-08-25T19:34:46.630Z,44.70
2017-08-25T19:37:14.109Z,44.90
2017-08-25T19:39:41.597Z,44.90
2017-08-25T19:42:09.049Z,45.10
2017-08-25T19:44:36.492Z,45.20
2017-08-25T19:47:03.965Z,45.20
2017-08-25T19:49:31.450Z,45.30
2017-08-25T19:51:59.662Z,45.50
2017-08-25T19:54:27.117Z,45.40
2017-08-25T19:56:54.613Z,45.50
2017-08-25T19:59:22.062Z,45.60
2017-08-25T20:01:49.513Z,45.50
2017-08-25T20:04:17.005Z,45.50
2017-08-25T20:06:44.458Z,45.50
2017-08-25T20:09:11.914Z,45.60
2017-08-25T20:11:39.382Z,45.60
2017-08-25T20:14:07.625Z,45.70
2017-08-25T20:16:35.128Z,45.80
2017-08-25T20:19:02.581Z,45.80
2017-08-25T20:21:30.021Z,45.70
2017-08-25T20:23:57.509Z,45.80
2017-08-25T20:26:25.343Z,45.70
2017-08-25T20:28:52.821Z,45.80
2017-08-25T20:31:20.303Z,46.40
2017-08-25T20:39:42.154Z,45.90
2017-08-25T20:42:09.604Z,46.00
2017-08-25T20:44:37.115Z,46.30
2017-08-25T20:47:04.594Z,46.50
2017-08-25T20:49:32.077Z,46.60
2017-08-25T20:51:59.534Z,46.70
2017-08-25T20:54:27.027Z,47.60
2017-08-25T20:56:54.477Z,46.90
2017-08-25T20:59:21.922Z,46.90
2017-08-25T21:01:50.183Z,47.10
2017-08-25T21:04:17.661Z,47.10
2017-08-25T21:06:45.109Z,47.90
2017-08-25T21:09:12.562Z,47.40
2017-08-25T21:11:40.034Z,47.60
2017-08-25T21:14:07.650Z,47.60
2017-08-25T21:16:35.097Z,47.80
2017-08-25T21:19:02.570Z,47.90
2017-08-25T21:21:30.056Z,47.90
2017-08-25T21:23:57.513Z,47.90
2017-08-25T21:26:24.962Z,48.50
2017-08-25T21:28:52.569Z,48.20
2017-08-25T21:31:20.049Z,48.20
2017-08-25T21:33:47.505Z,48.30
2017-08-25T21:36:15.073Z,48.40
2017-08-25T21:38:42.554Z,48.60
2017-08-25T21:41:10.037Z,48.70
2017-08-25T21:43:37.512Z,48.70
2017-08-25T21:46:04.982Z,48.80
2017-08-25T21:48:32.457Z,48.80
2017-08-25T21:51:00.004Z,49.00
2017-08-25T21:53:27.570Z,49.20
2017-08-25T21:55:55.040Z,49.40
2017-08-25T21:58:22.519Z,49.40
2017-08-25T22:00:49.976Z,49.60
2017-08-25T22:03:17.458Z,49.80
2017-08-25T22:05:44.905Z,49.90
2017-08-25T22:08:12.381Z,49.80
2017-08-25T22:10:39.838Z,50.10
2017-08-25T22:13:07.290Z,50.20
2017-08-25T22:15:34.778Z,50.30
2017-08-25T22:18:02.242Z,50.40
2017-08-25T22:20:29.746Z,50.50
2017-08-25T22:22:57.198Z,50.50
2017-08-25T22:25:24.685Z,50.70
2017-08-25T22:27:52.901Z,51.00
2017-08-25T22:30:20.357Z,51.00
2017-08-25T22:32:47.846Z,51.00
2017-08-25T22:35:15.329Z,51.10
2017-08-25T22:37:42.805Z,51.20
2017-08-25T22:40:10.326Z,51.20
2017-08-25T22:42:37.816Z,51.30
2017-08-25T22:45:05.326Z,52.00
2017-08-25T22:47:32.826Z,51.50
2017-08-25T22:50:00.285Z,51.60
2017-08-25T22:52:27.740Z,51.80
2017-08-25T22:54:55.228Z,51.80
2017-08-25T22:57:22.691Z,52.00
2017-08-25T22:59:50.152Z,52.00
2017-08-25T23:02:17.640Z,52.10
2017-08-25T23:04:45.090Z,52.20
2017-08-25T23:07:13.746Z,52.50
2017-08-25T23:09:41.287Z,52.40
2017-08-25T23:12:08.754Z,52.50
2017-08-25T23:14:36.210Z,52.70
2017-08-25T23:17:03.688Z,52.70
2017-08-25T23:19:31.173Z,52.80
2017-08-25T23:21:58.629Z,52.80
2017-08-25T23:24:26.110Z,52.70
2017-08-25T23:26:53.642Z,52.80
2017-08-25T23:29:21.101Z,52.90
2017-08-25T23:31:48.557Z,52.90
2017-08-25T23:34:16.074Z,53.00
2017-08-25T23:36:43.525Z,53.10
2017-08-25T23:39:11.100Z,53.10
2017-08-25T23:41:38.553Z,53.20
2017-08-25T23:44:06.006Z,53.30
2017-08-25T23:46:34.385Z,53.40
2017-08-25T23:49:01.856Z,53.50
2017-08-25T23:51:29.325Z,53.60
2017-08-25T23:53:56.781Z,53.70
2017-08-25T23:56:24.257Z,53.60
2017-08-25T23:58:51.710Z,53.70
